sensor_id;sensor_type;location;lat;lon;timestamp;P1;durP1;ratioP1;P2;durP2;ratioP2
72413;SDS011;60995;52.154;4.498;2023-05-24T00:00:46;18.40;;;4.40;;
72413;SDS011;60995;52.154;4.498;2023-05-24T00:03:02;22.40;;;4.47;;
72413;SDS011;60995;52.154;4.498;2023-05-24T00:05:19;26.67;;;4.97;;
72413;SDS011;60995;52.154;4.498;2023-05-24T00:07:36;25.35;;;5.45;;
72413;SDS011;60995;52.154;4.498;2023-05-24T00:09:53;20.67;;;4.93;;
72413;SDS011;60995;52.154;4.498;2023-05-24T00:12:09;18.80;;;4.78;;
72413;SDS011;60995;52.154;4.498;2023-05-24T00:14:26;24.30;;;4.72;;
72413;SDS011;60995;52.154;4.498;2023-05-24T00:16:42;19.15;;;5.15;;
72413;SDS011;60995;52.154;4.498;2023-05-24T00:18:58;18.48;;;4.80;;
72413;SDS011;60995;52.154;4.498;2023-05-24T00:21:15;28.58;;;5.68;;
72413;SDS011;60995;52.154;4.498;2023-05-24T00:23:31;38.38;;;5.47;;
72413;SDS011;60995;52.154;4.498;2023-05-24T00:25:48;23.35;;;5.30;;
72413;SDS011;60995;52.154;4.498;2023-05-24T00:28:04;27.52;;;6.05;;
72413;SDS011;60995;52.154;4.498;2023-05-24T00:30:20;21.08;;;5.57;;
72413;SDS011;60995;52.154;4.498;2023-05-24T00:32:36;27.48;;;6.18;;
72413;SDS011;60995;52.154;4.498;2023-05-24T00:34:53;26.85;;;5.82;;
72413;SDS011;60995;52.154;4.498;2023-05-24T00:37:10;29.25;;;5.63;;
72413;SDS011;60995;52.154;4.498;2023-05-24T00:39:27;31.88;;;5.53;;
72413;SDS011;60995;52.154;4.498;2023-05-24T00:41:43;17.02;;;4.75;;
72413;SDS011;60995;52.154;4.498;2023-05-24T00:44:00;30.40;;;5.53;;
72413;SDS011;60995;52.154;4.498;2023-05-24T00:46:17;22.60;;;5.00;;
72413;SDS011;60995;52.154;4.498;2023-05-24T00:48:42;21.40;;;5.45;;
72413;SDS011;60995;52.154;4.498;2023-05-24T00:51:00;26.77;;;5.70;;
72413;SDS011;60995;52.154;4.498;2023-05-24T00:53:17;26.88;;;6.32;;
72413;SDS011;60995;52.154;4.498;2023-05-24T00:55:33;19.52;;;4.93;;
72413;SDS011;60995;52.154;4.498;2023-05-24T00:57:51;24.60;;;5.72;;
72413;SDS011;60995;52.154;4.498;2023-05-24T01:00:09;26.75;;;5.43;;
72413;SDS011;60995;52.154;4.498;2023-05-24T01:02:27;33.10;;;5.85;;
72413;SDS011;60995;52.154;4.498;2023-05-24T01:04:43;24.25;;;5.28;;
72413;SDS011;60995;52.154;4.498;2023-05-24T01:16:05;22.45;;;5.70;;
72413;SDS011;60995;52.154;4.498;2023-05-24T01:18:32;30.05;;;5.93;;
72413;SDS011;60995;52.154;4.498;2023-05-24T01:23:43;27.48;;;5.75;;
72413;SDS011;60995;52.154;4.498;2023-05-24T01:29:24;23.50;;;5.20;;
72413;SDS011;60995;52.154;4.498;2023-05-24T01:31:42;18.27;;;5.13;;
72413;SDS011;60995;52.154;4.498;2023-05-24T01:34:00;23.42;;;5.32;;
72413;SDS011;60995;52.154;4.498;2023-05-24T01:36:16;22.85;;;5.40;;
72413;SDS011;60995;52.154;4.498;2023-05-24T01:38:33;25.27;;;5.55;;
72413;SDS011;60995;52.154;4.498;2023-05-24T01:40:51;26.77;;;5.63;;
72413;SDS011;60995;52.154;4.498;2023-05-24T01:43:39;21.98;;;5.50;;
72413;SDS011;60995;52.154;4.498;2023-05-24T01:46:12;30.52;;;5.80;;
72413;SDS011;60995;52.154;4.498;2023-05-24T01:51:19;25.55;;;6.07;;
72413;SDS011;60995;52.154;4.498;2023-05-24T01:53:40;25.38;;;6.07;;
72413;SDS011;60995;52.154;4.498;2023-05-24T01:56:02;23.25;;;5.85;;
72413;SDS011;60995;52.154;4.498;2023-05-24T01:58:22;23.63;;;5.70;;
72413;SDS011;60995;52.154;4.498;2023-05-24T02:00:41;21.75;;;5.85;;
72413;SDS011;60995;52.154;4.498;2023-05-24T02:03:00;25.95;;;6.15;;
72413;SDS011;60995;52.154;4.498;2023-05-24T02:05:17;21.48;;;5.32;;
72413;SDS011;60995;52.154;4.498;2023-05-24T02:07:34;26.63;;;5.75;;
72413;SDS011;60995;52.154;4.498;2023-05-24T02:09:50;30.70;;;5.78;;
72413;SDS011;60995;52.154;4.498;2023-05-24T02:12:07;27.70;;;5.38;;
72413;SDS011;60995;52.154;4.498;2023-05-24T02:14:25;32.38;;;5.88;;
72413;SDS011;60995;52.154;4.498;2023-05-24T02:16:41;31.48;;;5.70;;
72413;SDS011;60995;52.154;4.498;2023-05-24T02:19:01;21.83;;;5.13;;
72413;SDS011;60995;52.154;4.498;2023-05-24T02:21:17;26.85;;;5.05;;
72413;SDS011;60995;52.154;4.498;2023-05-24T02:23:34;29.38;;;6.45;;
72413;SDS011;60995;52.154;4.498;2023-05-24T02:25:50;21.83;;;5.28;;
72413;SDS011;60995;52.154;4.498;2023-05-24T02:28:07;29.45;;;6.03;;
72413;SDS011;60995;52.154;4.498;2023-05-24T02:30:24;24.83;;;5.45;;
72413;SDS011;60995;52.154;4.498;2023-05-24T02:32:41;23.65;;;5.50;;
72413;SDS011;60995;52.154;4.498;2023-05-24T02:34:57;22.77;;;5.50;;
72413;SDS011;60995;52.154;4.498;2023-05-24T02:37:13;26.23;;;5.25;;
72413;SDS011;60995;52.154;4.498;2023-05-24T02:39:30;20.75;;;5.20;;
72413;SDS011;60995;52.154;4.498;2023-05-24T02:41:47;30.38;;;5.75;;
72413;SDS011;60995;52.154;4.498;2023-05-24T02:44:03;23.13;;;5.50;;
72413;SDS011;60995;52.154;4.498;2023-05-24T02:46:20;24.00;;;5.85;;
72413;SDS011;60995;52.154;4.498;2023-05-24T02:48:36;27.33;;;5.50;;
72413;SDS011;60995;52.154;4.498;2023-05-24T02:50:52;23.13;;;5.43;;
72413;SDS011;60995;52.154;4.498;2023-05-24T02:53:09;30.48;;;6.28;;
72413;SDS011;60995;52.154;4.498;2023-05-24T02:55:26;25.48;;;5.63;;
72413;SDS011;60995;52.154;4.498;2023-05-24T02:57:43;25.48;;;5.20;;
72413;SDS011;60995;52.154;4.498;2023-05-24T03:00:00;24.02;;;5.45;;
72413;SDS011;60995;52.154;4.498;2023-05-24T03:02:16;24.38;;;5.47;;
72413;SDS011;60995;52.154;4.498;2023-05-24T03:04:34;30.67;;;5.93;;
72413;SDS011;60995;52.154;4.498;2023-05-24T03:06:50;31.15;;;6.53;;
72413;SDS011;60995;52.154;4.498;2023-05-24T03:09:08;33.33;;;7.80;;
72413;SDS011;60995;52.154;4.498;2023-05-24T03:11:24;27.58;;;6.25;;
72413;SDS011;60995;52.154;4.498;2023-05-24T03:13:41;28.35;;;5.90;;
72413;SDS011;60995;52.154;4.498;2023-05-24T03:15:57;25.15;;;5.40;;
72413;SDS011;60995;52.154;4.498;2023-05-24T03:18:13;21.80;;;5.43;;
72413;SDS011;60995;52.154;4.498;2023-05-24T03:20:30;29.08;;;5.93;;
72413;SDS011;60995;52.154;4.498;2023-05-24T03:22:48;26.92;;;6.35;;
72413;SDS011;60995;52.154;4.498;2023-05-24T03:25:04;25.63;;;6.47;;
72413;SDS011;60995;52.154;4.498;2023-05-24T03:27:24;27.52;;;6.35;;
72413;SDS011;60995;52.154;4.498;2023-05-24T03:29:40;28.30;;;6.90;;
72413;SDS011;60995;52.154;4.498;2023-05-24T03:31:57;27.33;;;6.53;;
72413;SDS011;60995;52.154;4.498;2023-05-24T03:34:13;33.75;;;7.28;;
72413;SDS011;60995;52.154;4.498;2023-05-24T03:36:29;30.00;;;6.68;;
72413;SDS011;60995;52.154;4.498;2023-05-24T03:38:46;28.02;;;6.78;;
72413;SDS011;60995;52.154;4.498;2023-05-24T03:41:02;29.20;;;7.38;;
72413;SDS011;60995;52.154;4.498;2023-05-24T03:43:18;33.42;;;9.73;;
72413;SDS011;60995;52.154;4.498;2023-05-24T03:45:35;26.73;;;7.32;;
72413;SDS011;60995;52.154;4.498;2023-05-24T03:47:52;28.15;;;7.72;;
72413;SDS011;60995;52.154;4.498;2023-05-24T03:50:08;30.00;;;8.85;;
72413;SDS011;60995;52.154;4.498;2023-05-24T03:52:25;27.08;;;7.93;;
72413;SDS011;60995;52.154;4.498;2023-05-24T03:54:41;25.17;;;6.88;;
72413;SDS011;60995;52.154;4.498;2023-05-24T03:56:58;30.73;;;9.18;;
72413;SDS011;60995;52.154;4.498;2023-05-24T03:59:14;28.95;;;8.20;;
72413;SDS011;60995;52.154;4.498;2023-05-24T04:01:31;28.23;;;7.22;;
72413;SDS011;60995;52.154;4.498;2023-05-24T04:03:47;30.60;;;6.60;;
72413;SDS011;60995;52.154;4.498;2023-05-24T04:06:03;20.17;;;5.90;;
72413;SDS011;60995;52.154;4.498;2023-05-24T04:08:20;26.00;;;6.90;;
72413;SDS011;60995;52.154;4.498;2023-05-24T04:10:37;24.42;;;5.90;;
72413;SDS011;60995;52.154;4.498;2023-05-24T04:12:53;27.67;;;6.43;;
72413;SDS011;60995;52.154;4.498;2023-05-24T04:15:11;27.42;;;5.57;;
72413;SDS011;60995;52.154;4.498;2023-05-24T04:17:30;24.83;;;5.85;;
72413;SDS011;60995;52.154;4.498;2023-05-24T04:19:49;25.85;;;5.68;;
72413;SDS011;60995;52.154;4.498;2023-05-24T04:22:06;27.30;;;4.90;;
72413;SDS011;60995;52.154;4.498;2023-05-24T04:24:23;27.08;;;5.57;;
72413;SDS011;60995;52.154;4.498;2023-05-24T04:26:39;26.20;;;5.50;;
72413;SDS011;60995;52.154;4.498;2023-05-24T04:29:02;30.17;;;5.78;;
72413;SDS011;60995;52.154;4.498;2023-05-24T04:31:19;23.90;;;4.82;;
72413;SDS011;60995;52.154;4.498;2023-05-24T04:33:36;25.45;;;5.10;;
72413;SDS011;60995;52.154;4.498;2023-05-24T04:35:54;27.88;;;5.65;;
72413;SDS011;60995;52.154;4.498;2023-05-24T04:38:10;29.13;;;5.07;;
72413;SDS011;60995;52.154;4.498;2023-05-24T04:40:27;24.25;;;5.40;;
72413;SDS011;60995;52.154;4.498;2023-05-24T04:42:43;28.30;;;5.35;;
72413;SDS011;60995;52.154;4.498;2023-05-24T04:45:00;24.85;;;4.93;;
72413;SDS011;60995;52.154;4.498;2023-05-24T04:47:20;25.27;;;5.18;;
72413;SDS011;60995;52.154;4.498;2023-05-24T04:49:36;18.92;;;4.35;;
72413;SDS011;60995;52.154;4.498;2023-05-24T04:51:53;24.23;;;5.15;;
72413;SDS011;60995;52.154;4.498;2023-05-24T04:54:11;18.42;;;4.50;;
72413;SDS011;60995;52.154;4.498;2023-05-24T04:56:27;23.00;;;4.70;;
72413;SDS011;60995;52.154;4.498;2023-05-24T04:58:44;18.80;;;4.32;;
72413;SDS011;60995;52.154;4.498;2023-05-24T05:01:00;26.50;;;4.85;;
72413;SDS011;60995;52.154;4.498;2023-05-24T05:03:20;27.30;;;4.60;;
72413;SDS011;60995;52.154;4.498;2023-05-24T05:05:36;24.88;;;5.18;;
72413;SDS011;60995;52.154;4.498;2023-05-24T05:07:54;26.40;;;4.65;;
72413;SDS011;60995;52.154;4.498;2023-05-24T05:10:10;22.05;;;4.47;;
72413;SDS011;60995;52.154;4.498;2023-05-24T05:12:29;27.88;;;4.47;;
72413;SDS011;60995;52.154;4.498;2023-05-24T05:14:55;22.98;;;4.25;;
72413;SDS011;60995;52.154;4.498;2023-05-24T05:17:11;20.17;;;4.38;;
72413;SDS011;60995;52.154;4.498;2023-05-24T05:19:28;26.67;;;4.78;;
72413;SDS011;60995;52.154;4.498;2023-05-24T05:21:44;18.92;;;4.18;;
72413;SDS011;60995;52.154;4.498;2023-05-24T05:24:01;20.25;;;3.72;;
72413;SDS011;60995;52.154;4.498;2023-05-24T05:26:18;24.63;;;4.65;;
72413;SDS011;60995;52.154;4.498;2023-05-24T05:28:35;26.52;;;4.78;;
72413;SDS011;60995;52.154;4.498;2023-05-24T05:30:51;22.38;;;4.93;;
72413;SDS011;60995;52.154;4.498;2023-05-24T05:33:08;21.60;;;5.72;;
72413;SDS011;60995;52.154;4.498;2023-05-24T05:35:24;22.10;;;4.53;;
72413;SDS011;60995;52.154;4.498;2023-05-24T05:37:41;24.65;;;4.85;;
72413;SDS011;60995;52.154;4.498;2023-05-24T05:39:57;23.35;;;4.60;;
72413;SDS011;60995;52.154;4.498;2023-05-24T05:42:13;20.67;;;4.68;;
72413;SDS011;60995;52.154;4.498;2023-05-24T05:44:30;19.42;;;4.28;;
72413;SDS011;60995;52.154;4.498;2023-05-24T05:46:46;21.52;;;4.30;;
72413;SDS011;60995;52.154;4.498;2023-05-24T05:49:02;19.33;;;4.32;;
72413;SDS011;60995;52.154;4.498;2023-05-24T05:51:19;19.35;;;3.83;;
72413;SDS011;60995;52.154;4.498;2023-05-24T05:53:35;19.73;;;4.03;;
72413;SDS011;60995;52.154;4.498;2023-05-24T05:55:52;17.98;;;3.38;;
72413;SDS011;60995;52.154;4.498;2023-05-24T05:58:08;17.10;;;3.63;;
72413;SDS011;60995;52.154;4.498;2023-05-24T06:00:26;20.33;;;3.55;;
72413;SDS011;60995;52.154;4.498;2023-05-24T06:02:43;15.57;;;3.67;;
72413;SDS011;60995;52.154;4.498;2023-05-24T06:05:00;18.10;;;3.47;;
72413;SDS011;60995;52.154;4.498;2023-05-24T06:07:17;21.23;;;4.35;;
72413;SDS011;60995;52.154;4.498;2023-05-24T06:09:34;19.75;;;4.05;;
72413;SDS011;60995;52.154;4.498;2023-05-24T06:11:54;15.70;;;3.50;;
72413;SDS011;60995;52.154;4.498;2023-05-24T06:14:10;21.33;;;3.88;;
72413;SDS011;60995;52.154;4.498;2023-05-24T06:16:28;21.92;;;4.32;;
72413;SDS011;60995;52.154;4.498;2023-05-24T06:18:44;16.85;;;3.60;;
72413;SDS011;60995;52.154;4.498;2023-05-24T06:21:02;25.15;;;4.07;;
72413;SDS011;60995;52.154;4.498;2023-05-24T06:23:18;18.08;;;4.32;;
72413;SDS011;60995;52.154;4.498;2023-05-24T06:25:35;22.25;;;4.28;;
72413;SDS011;60995;52.154;4.498;2023-05-24T06:27:53;17.10;;;3.40;;
72413;SDS011;60995;52.154;4.498;2023-05-24T06:30:09;19.45;;;3.38;;
72413;SDS011;60995;52.154;4.498;2023-05-24T06:32:27;20.13;;;4.03;;
72413;SDS011;60995;52.154;4.498;2023-05-24T06:34:44;19.55;;;3.83;;
72413;SDS011;60995;52.154;4.498;2023-05-24T06:37:00;20.38;;;3.65;;
72413;SDS011;60995;52.154;4.498;2023-05-24T06:39:18;15.35;;;3.30;;
72413;SDS011;60995;52.154;4.498;2023-05-24T06:41:35;16.88;;;3.80;;
72413;SDS011;60995;52.154;4.498;2023-05-24T06:43:53;21.02;;;4.00;;
72413;SDS011;60995;52.154;4.498;2023-05-24T06:46:10;18.98;;;4.10;;
72413;SDS011;60995;52.154;4.498;2023-05-24T06:48:26;16.17;;;3.42;;
72413;SDS011;60995;52.154;4.498;2023-05-24T06:50:43;17.60;;;4.22;;
72413;SDS011;60995;52.154;4.498;2023-05-24T06:53:00;22.00;;;4.13;;
72413;SDS011;60995;52.154;4.498;2023-05-24T06:55:18;16.92;;;3.63;;
72413;SDS011;60995;52.154;4.498;2023-05-24T06:57:35;18.90;;;3.53;;
72413;SDS011;60995;52.154;4.498;2023-05-24T06:59:51;19.27;;;3.55;;
72413;SDS011;60995;52.154;4.498;2023-05-24T07:02:07;19.23;;;3.70;;
72413;SDS011;60995;52.154;4.498;2023-05-24T07:04:24;19.25;;;3.50;;
72413;SDS011;60995;52.154;4.498;2023-05-24T07:06:40;18.50;;;3.30;;
72413;SDS011;60995;52.154;4.498;2023-05-24T07:08:57;25.08;;;4.07;;
72413;SDS011;60995;52.154;4.498;2023-05-24T07:11:14;15.98;;;2.97;;
72413;SDS011;60995;52.154;4.498;2023-05-24T07:13:33;18.05;;;3.35;;
72413;SDS011;60995;52.154;4.498;2023-05-24T07:15:50;17.85;;;3.42;;
72413;SDS011;60995;52.154;4.498;2023-05-24T07:18:07;16.58;;;3.17;;
72413;SDS011;60995;52.154;4.498;2023-05-24T07:20:23;19.67;;;3.33;;
72413;SDS011;60995;52.154;4.498;2023-05-24T07:22:40;19.65;;;3.50;;
72413;SDS011;60995;52.154;4.498;2023-05-24T07:24:56;15.98;;;3.20;;
72413;SDS011;60995;52.154;4.498;2023-05-24T07:27:13;21.58;;;3.85;;
72413;SDS011;60995;52.154;4.498;2023-05-24T07:29:29;16.98;;;3.05;;
72413;SDS011;60995;52.154;4.498;2023-05-24T07:31:46;22.33;;;4.05;;
72413;SDS011;60995;52.154;4.498;2023-05-24T07:34:03;20.00;;;5.10;;
72413;SDS011;60995;52.154;4.498;2023-05-24T07:36:19;15.95;;;3.28;;
72413;SDS011;60995;52.154;4.498;2023-05-24T07:38:36;14.27;;;3.10;;
72413;SDS011;60995;52.154;4.498;2023-05-24T07:40:53;19.92;;;3.80;;
72413;SDS011;60995;52.154;4.498;2023-05-24T07:43:10;15.23;;;2.90;;
72413;SDS011;60995;52.154;4.498;2023-05-24T07:45:26;16.17;;;3.15;;
72413;SDS011;60995;52.154;4.498;2023-05-24T07:47:42;20.55;;;3.60;;
72413;SDS011;60995;52.154;4.498;2023-05-24T07:49:59;15.93;;;3.50;;
72413;SDS011;60995;52.154;4.498;2023-05-24T07:52:15;17.90;;;3.28;;
72413;SDS011;60995;52.154;4.498;2023-05-24T07:54:32;14.55;;;3.20;;
72413;SDS011;60995;52.154;4.498;2023-05-24T07:56:48;12.80;;;3.08;;
72413;SDS011;60995;52.154;4.498;2023-05-24T07:59:06;12.98;;;2.80;;
72413;SDS011;60995;52.154;4.498;2023-05-24T08:01:22;13.02;;;2.97;;
72413;SDS011;60995;52.154;4.498;2023-05-24T08:03:39;19.35;;;3.63;;
72413;SDS011;60995;52.154;4.498;2023-05-24T08:05:56;16.42;;;3.42;;
72413;SDS011;60995;52.154;4.498;2023-05-24T08:08:12;15.52;;;3.58;;
72413;SDS011;60995;52.154;4.498;2023-05-24T08:10:29;12.68;;;2.83;;
72413;SDS011;60995;52.154;4.498;2023-05-24T08:12:45;17.73;;;3.40;;
72413;SDS011;60995;52.154;4.498;2023-05-24T08:15:02;15.52;;;3.35;;
72413;SDS011;60995;52.154;4.498;2023-05-24T08:17:20;17.55;;;3.55;;
72413;SDS011;60995;52.154;4.498;2023-05-24T08:19:37;14.65;;;3.00;;
72413;SDS011;60995;52.154;4.498;2023-05-24T08:21:54;15.75;;;3.08;;
72413;SDS011;60995;52.154;4.498;2023-05-24T08:24:12;16.75;;;3.75;;
72413;SDS011;60995;52.154;4.498;2023-05-24T08:26:28;14.50;;;3.13;;
72413;SDS011;60995;52.154;4.498;2023-05-24T08:28:44;17.95;;;3.85;;
72413;SDS011;60995;52.154;4.498;2023-05-24T08:31:01;12.60;;;2.88;;
72413;SDS011;60995;52.154;4.498;2023-05-24T08:33:19;15.90;;;3.50;;
72413;SDS011;60995;52.154;4.498;2023-05-24T08:35:37;12.25;;;3.15;;
72413;SDS011;60995;52.154;4.498;2023-05-24T08:37:53;14.10;;;4.30;;
72413;SDS011;60995;52.154;4.498;2023-05-24T08:40:10;14.43;;;3.85;;
72413;SDS011;60995;52.154;4.498;2023-05-24T08:42:27;20.08;;;3.70;;
72413;SDS011;60995;52.154;4.498;2023-05-24T08:44:52;17.63;;;3.65;;
72413;SDS011;60995;52.154;4.498;2023-05-24T08:47:29;13.70;;;2.88;;
72413;SDS011;60995;52.154;4.498;2023-05-24T08:49:49;14.68;;;3.05;;
72413;SDS011;60995;52.154;4.498;2023-05-24T08:52:07;14.75;;;3.10;;
72413;SDS011;60995;52.154;4.498;2023-05-24T08:54:26;13.90;;;2.88;;
72413;SDS011;60995;52.154;4.498;2023-05-24T08:56:43;15.50;;;3.47;;
72413;SDS011;60995;52.154;4.498;2023-05-24T08:59:00;15.85;;;3.45;;
72413;SDS011;60995;52.154;4.498;2023-05-24T09:01:16;14.70;;;3.05;;
72413;SDS011;60995;52.154;4.498;2023-05-24T09:03:33;13.95;;;2.97;;
72413;SDS011;60995;52.154;4.498;2023-05-24T09:05:51;14.02;;;3.05;;
72413;SDS011;60995;52.154;4.498;2023-05-24T09:08:08;14.88;;;3.00;;
72413;SDS011;60995;52.154;4.498;2023-05-24T09:10:26;13.00;;;2.92;;
72413;SDS011;60995;52.154;4.498;2023-05-24T09:12:49;17.33;;;3.33;;
72413;SDS011;60995;52.154;4.498;2023-05-24T09:15:13;14.52;;;3.03;;
72413;SDS011;60995;52.154;4.498;2023-05-24T09:17:29;18.27;;;3.80;;
72413;SDS011;60995;52.154;4.498;2023-05-24T09:19:48;14.23;;;3.58;;
72413;SDS011;60995;52.154;4.498;2023-05-24T09:22:09;16.63;;;3.23;;
72413;SDS011;60995;52.154;4.498;2023-05-24T09:24:29;16.65;;;3.58;;
72413;SDS011;60995;52.154;4.498;2023-05-24T09:26:47;14.15;;;3.47;;
72413;SDS011;60995;52.154;4.498;2023-05-24T09:29:06;17.38;;;3.28;;
72413;SDS011;60995;52.154;4.498;2023-05-24T09:31:30;13.25;;;3.15;;
72413;SDS011;60995;52.154;4.498;2023-05-24T09:33:51;15.57;;;3.30;;
72413;SDS011;60995;52.154;4.498;2023-05-24T09:36:08;12.38;;;3.28;;
72413;SDS011;60995;52.154;4.498;2023-05-24T09:38:25;13.20;;;3.00;;
72413;SDS011;60995;52.154;4.498;2023-05-24T09:40:43;15.02;;;3.30;;
72413;SDS011;60995;52.154;4.498;2023-05-24T09:43:07;12.88;;;3.13;;
72413;SDS011;60995;52.154;4.498;2023-05-24T09:45:27;12.70;;;2.80;;
72413;SDS011;60995;52.154;4.498;2023-05-24T09:47:46;13.02;;;3.33;;
72413;SDS011;60995;52.154;4.498;2023-05-24T09:50:04;16.15;;;3.20;;
72413;SDS011;60995;52.154;4.498;2023-05-24T09:52:27;15.40;;;3.08;;
72413;SDS011;60995;52.154;4.498;2023-05-24T09:54:44;10.95;;;3.08;;
72413;SDS011;60995;52.154;4.498;2023-05-24T09:57:02;13.60;;;3.00;;
72413;SDS011;60995;52.154;4.498;2023-05-24T09:59:21;16.58;;;3.47;;
72413;SDS011;60995;52.154;4.498;2023-05-24T10:01:39;11.80;;;2.90;;
72413;SDS011;60995;52.154;4.498;2023-05-24T10:03:59;10.45;;;2.92;;
72413;SDS011;60995;52.154;4.498;2023-05-24T10:06:17;16.33;;;2.97;;
72413;SDS011;60995;52.154;4.498;2023-05-24T10:08:34;11.13;;;2.80;;
72413;SDS011;60995;52.154;4.498;2023-05-24T10:10:51;15.20;;;3.10;;
72413;SDS011;60995;52.154;4.498;2023-05-24T10:13:11;13.75;;;3.20;;
72413;SDS011;60995;52.154;4.498;2023-05-24T10:15:30;16.20;;;3.33;;
72413;SDS011;60995;52.154;4.498;2023-05-24T10:17:46;13.82;;;3.03;;
72413;SDS011;60995;52.154;4.498;2023-05-24T10:20:03;14.75;;;3.30;;
72413;SDS011;60995;52.154;4.498;2023-05-24T10:22:24;12.70;;;2.85;;
72413;SDS011;60995;52.154;4.498;2023-05-24T10:24:48;11.75;;;2.80;;
72413;SDS011;60995;52.154;4.498;2023-05-24T10:27:14;18.10;;;3.53;;
72413;SDS011;60995;52.154;4.498;2023-05-24T10:32:02;14.90;;;3.25;;
72413;SDS011;60995;52.154;4.498;2023-05-24T10:34:19;12.68;;;2.97;;
72413;SDS011;60995;52.154;4.498;2023-05-24T10:36:39;15.32;;;2.83;;
72413;SDS011;60995;52.154;4.498;2023-05-24T10:38:59;13.13;;;2.90;;
72413;SDS011;60995;52.154;4.498;2023-05-24T10:41:17;11.82;;;2.72;;
72413;SDS011;60995;52.154;4.498;2023-05-24T10:43:34;15.65;;;3.35;;
72413;SDS011;60995;52.154;4.498;2023-05-24T10:45:53;12.88;;;2.97;;
72413;SDS011;60995;52.154;4.498;2023-05-24T10:50:28;17.15;;;3.53;;
72413;SDS011;60995;52.154;4.498;2023-05-24T10:52:44;13.50;;;2.90;;
72413;SDS011;60995;52.154;4.498;2023-05-24T10:55:05;18.73;;;3.50;;
72413;SDS011;60995;52.154;4.498;2023-05-24T10:57:24;16.67;;;4.63;;
72413;SDS011;60995;52.154;4.498;2023-05-24T10:59:42;15.52;;;3.28;;
72413;SDS011;60995;52.154;4.498;2023-05-24T11:02:00;15.27;;;3.45;;
72413;SDS011;60995;52.154;4.498;2023-05-24T11:04:18;11.25;;;3.00;;
72413;SDS011;60995;52.154;4.498;2023-05-24T11:09:24;13.98;;;3.17;;
72413;SDS011;60995;52.154;4.498;2023-05-24T11:11:46;13.65;;;3.05;;
72413;SDS011;60995;52.154;4.498;2023-05-24T11:14:10;13.23;;;3.20;;
72413;SDS011;60995;52.154;4.498;2023-05-24T11:16:46;14.77;;;3.38;;
72413;SDS011;60995;52.154;4.498;2023-05-24T11:19:10;14.63;;;2.78;;
72413;SDS011;60995;52.154;4.498;2023-05-24T11:21:29;20.75;;;3.33;;
72413;SDS011;60995;52.154;4.498;2023-05-24T11:23:47;20.85;;;8.52;;
72413;SDS011;60995;52.154;4.498;2023-05-24T11:26:07;24.67;;;8.98;;
72413;SDS011;60995;52.154;4.498;2023-05-24T11:28:24;12.18;;;2.70;;
72413;SDS011;60995;52.154;4.498;2023-05-24T11:30:42;13.77;;;3.65;;
72413;SDS011;60995;52.154;4.498;2023-05-24T11:33:01;17.48;;;3.20;;
72413;SDS011;60995;52.154;4.498;2023-05-24T11:35:18;14.20;;;3.33;;
72413;SDS011;60995;52.154;4.498;2023-05-24T11:37:37;14.02;;;3.38;;
72413;SDS011;60995;52.154;4.498;2023-05-24T11:39:53;13.13;;;2.83;;
72413;SDS011;60995;52.154;4.498;2023-05-24T11:42:11;13.93;;;2.92;;
72413;SDS011;60995;52.154;4.498;2023-05-24T11:44:30;14.52;;;4.13;;
72413;SDS011;60995;52.154;4.498;2023-05-24T11:46:47;14.68;;;3.00;;
72413;SDS011;60995;52.154;4.498;2023-05-24T11:49:04;17.67;;;5.35;;
72413;SDS011;60995;52.154;4.498;2023-05-24T11:51:25;12.82;;;3.28;;
72413;SDS011;60995;52.154;4.498;2023-05-24T11:53:46;12.60;;;3.28;;
72413;SDS011;60995;52.154;4.498;2023-05-24T11:56:03;15.60;;;3.45;;
72413;SDS011;60995;52.154;4.498;2023-05-24T11:58:37;54.55;;;27.63;;
72413;SDS011;60995;52.154;4.498;2023-05-24T12:01:04;16.17;;;3.60;;
72413;SDS011;60995;52.154;4.498;2023-05-24T12:03:20;16.30;;;2.90;;
72413;SDS011;60995;52.154;4.498;2023-05-24T12:05:37;16.73;;;2.95;;
72413;SDS011;60995;52.154;4.498;2023-05-24T12:08:04;13.27;;;3.00;;
72413;SDS011;60995;52.154;4.498;2023-05-24T12:10:23;12.65;;;3.10;;
72413;SDS011;60995;52.154;4.498;2023-05-24T12:12:48;12.93;;;2.70;;
72413;SDS011;60995;52.154;4.498;2023-05-24T12:15:06;13.80;;;3.22;;
72413;SDS011;60995;52.154;4.498;2023-05-24T12:17:23;13.07;;;3.35;;
72413;SDS011;60995;52.154;4.498;2023-05-24T12:19:40;17.00;;;4.38;;
72413;SDS011;60995;52.154;4.498;2023-05-24T12:21:59;15.80;;;4.35;;
72413;SDS011;60995;52.154;4.498;2023-05-24T12:24:19;15.35;;;3.08;;
72413;SDS011;60995;52.154;4.498;2023-05-24T12:26:41;13.73;;;3.28;;
72413;SDS011;60995;52.154;4.498;2023-05-24T12:28:59;16.75;;;3.42;;
72413;SDS011;60995;52.154;4.498;2023-05-24T12:31:16;13.60;;;2.70;;
72413;SDS011;60995;52.154;4.498;2023-05-24T12:33:32;15.70;;;3.58;;
72413;SDS011;60995;52.154;4.498;2023-05-24T12:35:49;14.30;;;3.10;;
72413;SDS011;60995;52.154;4.498;2023-05-24T12:38:07;15.82;;;2.88;;
72413;SDS011;60995;52.154;4.498;2023-05-24T12:40:34;14.57;;;2.90;;
72413;SDS011;60995;52.154;4.498;2023-05-24T12:42:54;16.35;;;3.17;;
72413;SDS011;60995;52.154;4.498;2023-05-24T12:45:12;15.73;;;3.40;;
72413;SDS011;60995;52.154;4.498;2023-05-24T12:47:29;15.32;;;3.28;;
72413;SDS011;60995;52.154;4.498;2023-05-24T12:49:48;18.55;;;3.30;;
72413;SDS011;60995;52.154;4.498;2023-05-24T12:52:10;12.67;;;3.13;;
72413;SDS011;60995;52.154;4.498;2023-05-24T12:54:27;15.40;;;3.13;;
72413;SDS011;60995;52.154;4.498;2023-05-24T12:56:44;18.15;;;3.15;;
72413;SDS011;60995;52.154;4.498;2023-05-24T12:59:02;15.45;;;3.15;;
72413;SDS011;60995;52.154;4.498;2023-05-24T13:01:18;15.30;;;3.30;;
72413;SDS011;60995;52.154;4.498;2023-05-24T13:03:35;18.33;;;3.42;;
72413;SDS011;60995;52.154;4.498;2023-05-24T13:05:51;14.60;;;3.25;;
72413;SDS011;60995;52.154;4.498;2023-05-24T13:08:07;13.68;;;3.15;;
72413;SDS011;60995;52.154;4.498;2023-05-24T13:10:25;15.02;;;3.00;;
72413;SDS011;60995;52.154;4.498;2023-05-24T13:12:42;12.82;;;2.78;;
72413;SDS011;60995;52.154;4.498;2023-05-24T13:14:58;13.00;;;2.78;;
72413;SDS011;60995;52.154;4.498;2023-05-24T13:17:15;15.93;;;3.13;;
72413;SDS011;60995;52.154;4.498;2023-05-24T13:19:32;14.57;;;3.00;;
72413;SDS011;60995;52.154;4.498;2023-05-24T13:21:51;16.83;;;3.22;;
72413;SDS011;60995;52.154;4.498;2023-05-24T13:24:08;16.92;;;3.50;;
72413;SDS011;60995;52.154;4.498;2023-05-24T13:26:25;19.10;;;3.47;;
72413;SDS011;60995;52.154;4.498;2023-05-24T13:28:44;16.40;;;3.17;;
72413;SDS011;60995;52.154;4.498;2023-05-24T13:31:01;17.40;;;3.30;;
72413;SDS011;60995;52.154;4.498;2023-05-24T13:33:17;17.00;;;4.10;;
72413;SDS011;60995;52.154;4.498;2023-05-24T13:35:34;18.25;;;3.85;;
72413;SDS011;60995;52.154;4.498;2023-05-24T13:37:50;15.93;;;3.55;;
72413;SDS011;60995;52.154;4.498;2023-05-24T13:40:08;19.52;;;3.97;;
72413;SDS011;60995;52.154;4.498;2023-05-24T13:42:28;15.48;;;3.47;;
72413;SDS011;60995;52.154;4.498;2023-05-24T13:44:48;19.40;;;3.55;;
72413;SDS011;60995;52.154;4.498;2023-05-24T13:47:04;17.20;;;4.50;;
72413;SDS011;60995;52.154;4.498;2023-05-24T13:49:21;15.63;;;3.83;;
72413;SDS011;60995;52.154;4.498;2023-05-24T13:51:38;19.55;;;3.72;;
72413;SDS011;60995;52.154;4.498;2023-05-24T13:53:55;14.02;;;3.08;;
72413;SDS011;60995;52.154;4.498;2023-05-24T13:56:11;14.77;;;3.13;;
72413;SDS011;60995;52.154;4.498;2023-05-24T13:58:27;16.00;;;3.60;;
72413;SDS011;60995;52.154;4.498;2023-05-24T14:00:44;16.25;;;3.65;;
72413;SDS011;60995;52.154;4.498;2023-05-24T14:03:00;20.23;;;4.10;;